»·PEaware :: N645PC KBFL-KONT

N645PC :: KBFL-KONT

FLIGHT INFORMATION

Flight Status: Arrived
Operator: Privately registered:
United States
More flights under this callsign
Pilot: Armando C. (16967)
Aircraft: PILATUS PC-12 EAGLE
(PC12)
More flights by this aircraft type
Origin: KBFL Meadows
United States
Destination: KONT Ontario Intl
United States
More flights between these airports :: More routes between these airports
Route: +MEADO3 PMD ZIGGY6
File this flight plan on PilotEdge
Remarks:
Altitude:
(Current/Filed)
11,000ft
Speed:
(Current/Filed)
235kts
Departed: 05-Jan-18 02:37 PM
Arrived: 05-Jan-18 03:35 PM
Distance/Time
Traveled:
109nm/0:58
Distance/Time
To Go:
Arrived

Flight Plot

Page will automatically refresh every two minutes.

Flight plan parsing failed; only flown route is shown


Map Options




Map Legend


Flown Route
Filed Route
Departure Airport
Arrival Airport
Navaid (VOR, NDB)
Fix

Horizontal Profiles

Position Reports

Time Latitude Longitude Heading Altitude Ground
Speed
05-Jan-18 14:22 35.429912 -119.045770 50 510ft 0kts
05-Jan-18 14:23 35.429912 -119.045769 50 510ft 0kts
05-Jan-18 14:24 35.429912 -119.045769 50 510ft 0kts
05-Jan-18 14:25 35.429912 -119.045769 50 510ft 0kts
05-Jan-18 14:26 35.429912 -119.045769 50 510ft 0kts
05-Jan-18 14:27 35.429913 -119.045769 50 510ft 0kts
05-Jan-18 14:28 35.429913 -119.045768 50 510ft 0kts
05-Jan-18 14:29 35.429913 -119.045768 50 510ft 0kts
05-Jan-18 14:30 35.429913 -119.045768 50 510ft 0kts
05-Jan-18 14:31 35.429913 -119.045768 50 510ft 0kts
05-Jan-18 14:32 35.429913 -119.045767 50 510ft 0kts
05-Jan-18 14:33 35.429914 -119.045767 50 510ft 0kts
05-Jan-18 14:34 35.429914 -119.045766 50 510ft 0kts
05-Jan-18 14:35 35.429914 -119.045766 50 510ft 0kts
05-Jan-18 14:36 35.429915 -119.045765 50 510ft 0kts
05-Jan-18 14:37 35.429724 -119.045804 225 510ft 0kts
05-Jan-18 14:38 35.428753 -119.047132 228 510ft 4kts
05-Jan-18 14:39 35.427304 -119.045930 135 510ft 6kts
05-Jan-18 14:40 35.426312 -119.045213 223 510ft 6kts
05-Jan-18 14:41 35.426142 -119.045424 226 510ft 0kts
05-Jan-18 14:42 35.426142 -119.045424 226 510ft 0kts
05-Jan-18 14:43 35.429377 -119.050905 313 554ft 90kts
05-Jan-18 14:44 35.451582 -119.078667 312 1954ft 137kts
05-Jan-18 14:45 35.481306 -119.116285 314 3010ft 177kts
05-Jan-18 14:46 35.518403 -119.162885 314 3005ft 199kts
05-Jan-18 14:47 35.548027 -119.200105 313 4060ft 163kts
05-Jan-18 14:48 35.584679 -119.246385 313 5970ft 164kts
05-Jan-18 14:49 35.614931 -119.284751 314 6006ft 203kts
05-Jan-18 14:50 35.632213 -119.344236 232 6473ft 200kts
05-Jan-18 14:51 35.581470 -119.326679 132 8462ft 185kts
05-Jan-18 14:52 35.552428 -119.288141 131 9876ft 184kts
05-Jan-18 14:53 35.520328 -119.245375 132 11008ft 211kts
05-Jan-18 14:54 35.477726 -119.186370 119 10995ft 240kts
05-Jan-18 14:55 35.453516 -119.109479 112 10998ft 243kts
05-Jan-18 14:56 35.416622 -119.040087 129 10992ft 244kts
05-Jan-18 14:57 35.370556 -118.978677 133 10992ft 245kts
05-Jan-18 14:58 35.323094 -118.919010 135 10985ft 244kts
05-Jan-18 14:59 35.275480 -118.860384 137 10967ft 240kts
05-Jan-18 15:00 35.226849 -118.804811 138 10946ft 239kts
05-Jan-18 15:01 35.177822 -118.749297 138 10937ft 241kts
05-Jan-18 15:02 35.128176 -118.693715 139 10915ft 242kts
05-Jan-18 15:03 35.078397 -118.637977 139 10910ft 242kts
05-Jan-18 15:04 35.029151 -118.582095 136 10911ft 236kts
05-Jan-18 15:05 34.984706 -118.525753 134 10908ft 227kts
05-Jan-18 15:06 34.940241 -118.467384 135 10936ft 239kts
05-Jan-18 15:07 34.894792 -118.407755 135 10936ft 239kts
05-Jan-18 15:08 34.849159 -118.348101 132 10954ft 233kts
05-Jan-18 15:09 34.805765 -118.291173 130 10998ft 230kts
05-Jan-18 15:10 34.761716 -118.233834 130 11019ft 234kts
05-Jan-18 15:11 34.716833 -118.175447 130 11019ft 237kts
05-Jan-18 15:12 34.672066 -118.117200 130 11015ft 235kts
05-Jan-18 15:13 34.629819 -118.056130 120 11023ft 236kts
05-Jan-18 15:14 34.596441 -117.987768 117 11021ft 236kts
05-Jan-18 15:15 34.564356 -117.918055 116 11022ft 237kts
05-Jan-18 15:16 34.532583 -117.848673 117 11020ft 233kts
05-Jan-18 15:17 34.501041 -117.779846 117 11021ft 232kts
05-Jan-18 15:18 34.469302 -117.710658 116 11021ft 236kts
05-Jan-18 15:19 34.437526 -117.641301 117 11023ft 233kts
05-Jan-18 15:20 34.405767 -117.572548 116 11027ft 234kts
05-Jan-18 15:21 34.373942 -117.503736 117 11027ft 234kts
05-Jan-18 15:22 34.341777 -117.434249 117 10723ft 243kts
05-Jan-18 15:23 34.307983 -117.362296 125 9726ft 246kts
05-Jan-18 15:24 34.272364 -117.292042 120 8728ft 243kts
05-Jan-18 15:25 34.225992 -117.239432 166 8036ft 231kts
05-Jan-18 15:26 34.163061 -117.226119 170 7923ft 232kts
05-Jan-18 15:27 34.103049 -117.214566 171 7873ft 207kts
05-Jan-18 15:28 34.046970 -117.203142 171 6874ft 199kts
05-Jan-18 15:29 33.993470 -117.191953 170 5874ft 191kts
05-Jan-18 15:30 33.943180 -117.184860 189 4856ft 172kts
05-Jan-18 15:31 33.940905 -117.226703 320 4196ft 143kts
05-Jan-18 15:32 33.971442 -117.256824 322 4122ft 145kts
05-Jan-18 15:33 34.003360 -117.287961 322 4119ft 149kts
05-Jan-18 15:34 34.034219 -117.321154 292 4070ft 154kts
05-Jan-18 15:35 34.043955 -117.373015 284 3917ft 157kts
05-Jan-18 15:36 34.053886 -117.424981 280 3370ft 143kts
05-Jan-18 15:37 34.055264 -117.468104 270 2923ft 127kts
05-Jan-18 15:38 34.055047 -117.504377 270 2251ft 93kts
05-Jan-18 15:39 34.055091 -117.535081 268 1761ft 90kts
05-Jan-18 15:40 34.054811 -117.565115 268 1281ft 87kts
05-Jan-18 15:41 34.054907 -117.591367 271 947ft 37kts
05-Jan-18 15:42 34.054204 -117.594486 215 947ft 0kts
05-Jan-18 15:43 34.053675 -117.596077 269 947ft 14kts
05-Jan-18 15:44 34.053659 -117.600237 270 947ft 10kts
05-Jan-18 15:45 34.053683 -117.603720 270 947ft 10kts
05-Jan-18 15:46 34.053676 -117.607016 270 947ft 9kts
05-Jan-18 15:47 34.053658 -117.610271 271 947ft 9kts
05-Jan-18 15:48 34.053216 -117.612991 176 947ft 8kts
05-Jan-18 15:49 34.051597 -117.612773 85 947ft 0kts
05-Jan-18 15:50 34.051597 -117.612773 85 947ft 0kts
05-Jan-18 15:51 34.051597 -117.612773 85 947ft 0kts
05-Jan-18 15:52 34.051597 -117.612773 85 947ft 0kts
05-Jan-18 15:53 34.051597 -117.612773 85 947ft 0kts

Navigation Log

Ident Type
Flight plan parsing failed, navigation log unavailable